createdAt,value
2017-08-20T00:00:30.777Z,972.94
2017-08-20T00:01:30.774Z,972.93
2017-08-20T00:02:30.771Z,972.94
2017-08-20T00:03:30.767Z,972.95
2017-08-20T00:04:30.765Z,972.95
2017-08-20T00:05:30.762Z,972.96
2017-08-20T00:06:30.758Z,972.97
2017-08-20T00:07:30.755Z,972.94
2017-08-20T00:08:30.751Z,972.96
2017-08-20T00:09:30.753Z,972.99
2017-08-20T00:10:30.746Z,972.98
2017-08-20T00:11:30.743Z,972.95
2017-08-20T00:12:30.737Z,972.95
2017-08-20T00:13:30.736Z,972.98
2017-08-20T00:14:30.733Z,973.02
2017-08-20T00:15:30.727Z,973.01
2017-08-20T00:16:30.725Z,973.03
2017-08-20T00:17:30.723Z,973.05
2017-08-20T00:18:30.718Z,973.04
2017-08-20T00:19:30.716Z,973.06
2017-08-20T00:20:30.713Z,973.06
2017-08-20T00:21:30.708Z,973.05
2017-08-20T00:22:30.706Z,973.06
2017-08-20T00:23:30.703Z,972.99
2017-08-20T00:24:30.700Z,973.01
2017-08-20T00:25:30.695Z,973.03
2017-08-20T00:26:30.693Z,973.01
2017-08-20T00:27:30.689Z,973.03
2017-08-20T00:28:30.687Z,973.04
2017-08-20T00:29:30.685Z,972.97
2017-08-20T00:30:30.680Z,973.03
2017-08-20T00:31:30.677Z,973.08
2017-08-20T00:32:30.675Z,973.08
2017-08-20T00:33:30.672Z,973.09
2017-08-20T00:34:30.674Z,973.05
2017-08-20T00:35:30.666Z,973.08
2017-08-20T00:36:30.660Z,973.1
2017-08-20T00:37:30.659Z,973.13
2017-08-20T00:38:30.655Z,973.09
2017-08-20T00:39:30.649Z,973.12
2017-08-20T00:40:30.647Z,973.13
2017-08-20T00:41:30.644Z,973.11
2017-08-20T00:42:30.643Z,973.12
2017-08-20T00:43:30.638Z,973.11
2017-08-20T00:44:30.633Z,973.12
2017-08-20T00:45:30.632Z,973.13
2017-08-20T00:46:30.629Z,973.15
2017-08-20T00:47:30.626Z,973.16
2017-08-20T00:48:30.621Z,973.13
2017-08-20T00:49:30.619Z,973.14
2017-08-20T00:50:30.615Z,973.11
2017-08-20T00:51:30.610Z,973.12
2017-08-20T00:52:30.608Z,973.12
2017-08-20T00:53:30.605Z,973.13
2017-08-20T00:54:30.601Z,973.16
2017-08-20T00:55:30.598Z,973.17
2017-08-20T00:56:30.596Z,973.16
2017-08-20T00:57:30.594Z,973.18
2017-08-20T00:58:30.587Z,973.24
2017-08-20T00:59:30.586Z,973.2
2017-08-20T01:00:30.582Z,973.23
2017-08-20T01:01:30.578Z,973.24
2017-08-20T01:02:30.576Z,973.25
2017-08-20T01:03:30.572Z,973.29
2017-08-20T01:04:30.570Z,973.29
2017-08-20T01:05:30.566Z,973.31
2017-08-20T01:06:30.564Z,973.29
2017-08-20T01:07:30.565Z,973.27
2017-08-20T01:08:30.557Z,973.28
2017-08-20T01:09:30.552Z,973.28
2017-08-20T01:10:30.550Z,973.34
2017-08-20T01:11:30.546Z,973.34
2017-08-20T01:12:30.542Z,973.31
2017-08-20T01:13:30.539Z,973.34
2017-08-20T01:14:30.539Z,973.39
2017-08-20T01:15:30.533Z,973.37
2017-08-20T01:16:30.528Z,973.33
2017-08-20T01:17:30.526Z,973.35
2017-08-20T01:18:30.521Z,973.37
2017-08-20T01:19:30.519Z,973.38
2017-08-20T01:20:30.516Z,973.39
2017-08-20T01:21:30.519Z,973.41
2017-08-20T01:22:30.510Z,973.38
2017-08-20T01:23:30.506Z,973.39
2017-08-20T01:24:30.502Z,973.36
2017-08-20T01:25:30.500Z,973.36
2017-08-20T01:26:30.496Z,973.36
2017-08-20T01:27:30.494Z,973.33
2017-08-20T01:28:30.488Z,973.34
2017-08-20T01:29:30.485Z,973.31
2017-08-20T01:30:30.482Z,973.33
2017-08-20T01:31:30.479Z,973.37
2017-08-20T01:32:30.475Z,973.36
2017-08-20T01:33:30.473Z,973.37
2017-08-20T01:34:30.469Z,973.34
2017-08-20T01:35:30.465Z,973.29
2017-08-20T01:36:30.461Z,973.34
2017-08-20T01:37:30.459Z,973.3
2017-08-20T01:38:30.456Z,973.28
2017-08-20T01:39:30.453Z,973.25
2017-08-20T01:40:30.450Z,973.3
2017-08-20T01:41:30.445Z,973.28
2017-08-20T01:42:30.442Z,973.3
2017-08-20T01:43:30.444Z,973.3
2017-08-20T01:44:30.438Z,973.31
2017-08-20T01:45:30.432Z,973.32
2017-08-20T01:46:30.429Z,973.32
2017-08-20T01:47:30.424Z,973.39
2017-08-20T01:48:30.421Z,973.35
2017-08-20T01:49:30.418Z,973.36
2017-08-20T01:50:30.414Z,973.36
2017-08-20T01:51:30.411Z,973.36
2017-08-20T01:52:30.407Z,973.35
2017-08-20T01:53:30.405Z,973.37
2017-08-20T01:54:30.400Z,973.39
2017-08-20T01:55:30.397Z,973.37
2017-08-20T01:56:30.393Z,973.39
2017-08-20T01:57:30.391Z,973.39
2017-08-20T01:58:30.387Z,973.4
2017-08-20T01:59:30.385Z,973.41
2017-08-20T02:00:30.380Z,973.41
2017-08-20T02:01:30.377Z,973.42
2017-08-20T02:02:30.373Z,973.45
2017-08-20T02:03:30.371Z,973.41
2017-08-20T02:04:30.368Z,973.39
2017-08-20T02:05:30.365Z,973.37
2017-08-20T02:06:30.361Z,973.39
2017-08-20T02:07:30.357Z,973.43
2017-08-20T02:08:30.353Z,973.42
2017-08-20T02:09:30.352Z,973.43
2017-08-20T02:10:30.347Z,973.44
2017-08-20T02:11:30.343Z,973.43
2017-08-20T02:12:30.341Z,973.41
2017-08-20T02:13:30.338Z,973.45
2017-08-20T02:14:30.333Z,973.46
2017-08-20T02:15:30.332Z,973.45
2017-08-20T02:16:30.327Z,973.42
2017-08-20T02:17:30.324Z,973.44
2017-08-20T02:18:30.321Z,973.45
2017-08-20T02:19:30.316Z,973.43
2017-08-20T02:20:30.313Z,973.45
2017-08-20T02:21:30.310Z,973.45
2017-08-20T02:22:30.307Z,973.45
2017-08-20T02:23:30.302Z,973.51
2017-08-20T02:24:30.300Z,973.48
2017-08-20T02:25:30.295Z,973.49
2017-08-20T02:26:30.292Z,973.47
2017-08-20T02:27:30.291Z,973.5
2017-08-20T02:28:30.285Z,973.48
2017-08-20T02:29:30.286Z,973.46
2017-08-20T02:30:30.279Z,973.45
2017-08-20T02:31:30.276Z,973.47
2017-08-20T02:32:30.273Z,973.48
2017-08-20T02:33:30.269Z,973.48
2017-08-20T02:34:30.264Z,973.49
2017-08-20T02:35:30.262Z,973.49
2017-08-20T02:36:30.256Z,973.47
2017-08-20T02:37:30.254Z,973.5
2017-08-20T02:38:30.251Z,973.49
2017-08-20T02:39:30.247Z,973.52
2017-08-20T02:40:30.245Z,973.55
2017-08-20T02:41:30.242Z,973.54
2017-08-20T02:42:30.238Z,973.52
2017-08-20T02:43:30.235Z,973.54
2017-08-20T02:44:30.230Z,973.57
2017-08-20T02:45:30.229Z,973.56
2017-08-20T02:46:30.226Z,973.54
2017-08-20T02:47:30.219Z,973.52
2017-08-20T02:48:30.216Z,973.55
2017-08-20T02:49:30.213Z,973.54
2017-08-20T02:50:30.211Z,973.56
2017-08-20T02:51:30.206Z,973.55
2017-08-20T02:52:30.201Z,973.54
2017-08-20T02:53:30.199Z,973.53
2017-08-20T02:54:30.195Z,973.57
2017-08-20T02:55:30.193Z,973.52
2017-08-20T02:56:30.189Z,973.51
2017-08-20T02:57:30.185Z,973.48
2017-08-20T02:58:30.180Z,973.55
2017-08-20T02:59:30.179Z,973.51
2017-08-20T03:00:30.175Z,973.51
2017-08-20T03:01:30.171Z,973.54
2017-08-20T03:02:30.167Z,973.55
2017-08-20T03:03:30.166Z,973.54
2017-08-20T03:04:30.162Z,973.58
2017-08-20T03:05:30.159Z,973.56
2017-08-20T03:06:30.152Z,973.58
2017-08-20T03:07:30.151Z,973.59
2017-08-20T03:08:30.146Z,973.58
2017-08-20T03:09:30.142Z,973.6
2017-08-20T03:10:30.140Z,973.58
2017-08-20T03:11:30.136Z,973.59
2017-08-20T03:12:30.132Z,973.61
2017-08-20T03:13:30.128Z,973.6
2017-08-20T03:14:30.125Z,973.59
2017-08-20T03:15:30.124Z,973.63
2017-08-20T03:16:30.118Z,973.67
2017-08-20T03:17:30.115Z,973.64
2017-08-20T03:18:30.112Z,973.64
2017-08-20T03:19:30.108Z,973.63
2017-08-20T03:20:30.104Z,973.64
2017-08-20T03:21:30.101Z,973.64
2017-08-20T03:22:30.097Z,973.68
2017-08-20T03:23:30.095Z,973.67
2017-08-20T03:24:30.089Z,973.68
2017-08-20T03:25:30.088Z,973.71
2017-08-20T03:26:30.084Z,973.72
2017-08-20T03:27:30.080Z,973.77
2017-08-20T03:28:30.077Z,973.77
2017-08-20T03:29:30.073Z,973.78
2017-08-20T03:30:30.069Z,973.83
2017-08-20T03:31:30.068Z,973.8
2017-08-20T03:32:30.061Z,973.79
2017-08-20T03:33:30.059Z,973.84
2017-08-20T03:34:30.055Z,973.8
2017-08-20T03:35:30.051Z,973.83
2017-08-20T03:36:30.049Z,973.84
2017-08-20T03:37:30.046Z,973.81
2017-08-20T03:38:30.040Z,973.85
2017-08-20T03:39:30.038Z,973.8
2017-08-20T03:40:30.036Z,973.81
2017-08-20T03:41:30.032Z,973.82
2017-08-20T03:42:30.027Z,973.79
2017-08-20T03:43:30.025Z,973.82
2017-08-20T03:44:30.020Z,973.8
2017-08-20T03:45:30.019Z,973.79
2017-08-20T03:46:30.014Z,973.77
2017-08-20T03:47:30.011Z,973.75
2017-08-20T03:48:30.007Z,973.77
2017-08-20T03:49:30.003Z,973.76
2017-08-20T03:50:29.997Z,973.84
2017-08-20T03:51:29.996Z,973.77
2017-08-20T03:52:29.993Z,973.77
2017-08-20T03:53:29.989Z,973.76
2017-08-20T03:54:29.985Z,973.75
2017-08-20T03:55:29.982Z,973.77
2017-08-20T03:56:29.980Z,973.76
2017-08-20T03:57:29.975Z,973.77
2017-08-20T03:58:29.970Z,973.74
2017-08-20T03:59:29.966Z,973.75
2017-08-20T04:00:29.965Z,973.79
2017-08-20T04:01:29.961Z,973.81
2017-08-20T04:02:29.958Z,973.8
2017-08-20T04:03:29.954Z,973.81
2017-08-20T04:04:29.949Z,973.79
2017-08-20T04:05:29.944Z,973.8
2017-08-20T04:06:29.942Z,973.84
2017-08-20T04:07:29.950Z,973.82
2017-08-20T04:08:29.935Z,973.82
2017-08-20T04:09:29.932Z,973.83
2017-08-20T04:10:29.929Z,973.82
2017-08-20T04:11:29.924Z,973.82
2017-08-20T04:12:29.921Z,973.83
2017-08-20T04:13:29.917Z,973.84
2017-08-20T04:14:29.913Z,973.87
2017-08-20T04:15:29.910Z,973.89
2017-08-20T04:16:29.905Z,973.87
2017-08-20T04:17:29.903Z,973.89
2017-08-20T04:18:29.901Z,973.86
2017-08-20T04:19:29.895Z,973.89
2017-08-20T04:20:29.891Z,973.85
2017-08-20T04:21:29.891Z,973.84
2017-08-20T04:22:29.883Z,973.88
2017-08-20T04:23:29.882Z,973.85
2017-08-20T04:24:29.877Z,973.83
2017-08-20T04:25:29.876Z,973.84
2017-08-20T04:26:29.870Z,973.83
2017-08-20T04:27:29.868Z,973.86
2017-08-20T04:28:29.863Z,973.86
2017-08-20T04:29:29.860Z,973.83
2017-08-20T04:30:29.855Z,973.82
2017-08-20T04:31:29.852Z,973.89
2017-08-20T04:32:29.849Z,973.84
2017-08-20T04:33:29.844Z,973.85
2017-08-20T04:34:29.841Z,973.86
2017-08-20T04:35:29.839Z,973.86
2017-08-20T04:36:29.834Z,973.84
2017-08-20T04:37:29.830Z,973.87
2017-08-20T04:38:29.826Z,973.89
2017-08-20T04:39:29.822Z,973.88
2017-08-20T04:40:29.820Z,973.88
2017-08-20T04:41:29.815Z,973.89
2017-08-20T04:42:29.812Z,973.89
2017-08-20T04:43:29.809Z,973.93
2017-08-20T04:44:29.804Z,973.93
2017-08-20T04:45:29.801Z,973.98
2017-08-20T04:46:29.798Z,973.94
2017-08-20T04:47:29.796Z,973.97
2017-08-20T04:48:29.791Z,973.96
2017-08-20T04:49:29.787Z,973.99
2017-08-20T04:50:29.783Z,973.94
2017-08-20T04:51:29.784Z,973.95
2017-08-20T04:52:29.775Z,973.94
2017-08-20T04:53:29.774Z,973.93
2017-08-20T04:54:29.767Z,973.96
2017-08-20T04:55:29.764Z,973.89
2017-08-20T04:56:29.761Z,973.92
2017-08-20T04:57:29.757Z,973.94
2017-08-20T04:58:29.754Z,973.98
2017-08-20T04:59:29.752Z,973.97
2017-08-20T05:00:29.747Z,973.97
2017-08-20T05:01:29.745Z,973.96
2017-08-20T05:02:29.739Z,974
2017-08-20T05:03:29.737Z,974.03
2017-08-20T05:04:29.732Z,974.02
2017-08-20T05:05:29.730Z,974.02
2017-08-20T05:06:29.726Z,974.02
2017-08-20T05:07:29.722Z,974.04
2017-08-20T05:08:29.718Z,974.06
2017-08-20T05:09:29.716Z,974.05
2017-08-20T05:10:29.710Z,974.08
2017-08-20T05:11:29.708Z,974.08
2017-08-20T05:12:29.705Z,974.1
2017-08-20T05:13:29.702Z,974.07
2017-08-20T05:14:29.700Z,974.08
2017-08-20T05:15:29.695Z,974.09
2017-08-20T05:16:29.692Z,974.09
2017-08-20T05:17:29.689Z,974.13
2017-08-20T05:18:29.686Z,974.13
2017-08-20T05:19:29.683Z,974.12
2017-08-20T05:20:29.679Z,974.17
2017-08-20T05:21:29.674Z,974.15
2017-08-20T05:22:29.672Z,974.17
2017-08-20T05:23:29.668Z,974.2
2017-08-20T05:24:29.664Z,974.2
2017-08-20T05:25:29.662Z,974.19
2017-08-20T05:26:29.659Z,974.24
2017-08-20T05:27:29.656Z,974.22
2017-08-20T05:28:29.652Z,974.22
2017-08-20T05:29:29.648Z,974.25
2017-08-20T05:30:29.646Z,974.23
2017-08-20T05:31:29.642Z,974.27
2017-08-20T05:32:29.637Z,974.27
2017-08-20T05:33:29.635Z,974.27
2017-08-20T05:34:29.632Z,974.28
2017-08-20T05:35:29.628Z,974.31
2017-08-20T05:36:29.625Z,974.3
2017-08-20T05:37:29.622Z,974.31
2017-08-20T05:38:29.621Z,974.33
2017-08-20T05:39:29.616Z,974.33
2017-08-20T05:40:29.613Z,974.34
2017-08-20T05:41:29.610Z,974.37
2017-08-20T05:42:29.608Z,974.34
2017-08-20T05:43:29.606Z,974.35
2017-08-20T05:44:29.603Z,974.34
2017-08-20T05:45:29.601Z,974.4
2017-08-20T05:46:29.597Z,974.37
2017-08-20T05:47:29.593Z,974.38
2017-08-20T05:48:29.593Z,974.38
2017-08-20T05:49:29.589Z,974.39
2017-08-20T05:50:29.586Z,974.43
2017-08-20T05:51:29.583Z,974.46
2017-08-20T05:52:29.581Z,974.49
2017-08-20T05:53:29.580Z,974.51
2017-08-20T05:54:29.576Z,974.55
2017-08-20T05:55:29.574Z,974.52
2017-08-20T05:56:29.571Z,974.55
2017-08-20T05:57:29.568Z,974.54
2017-08-20T05:58:29.565Z,974.54
2017-08-20T05:59:29.565Z,974.54
2017-08-20T06:00:29.563Z,974.51
2017-08-20T06:01:29.559Z,974.53
2017-08-20T06:02:29.557Z,974.5
2017-08-20T06:03:29.554Z,974.49
2017-08-20T06:04:29.555Z,974.53
2017-08-20T06:05:29.551Z,974.52
2017-08-20T06:06:29.548Z,974.52
2017-08-20T06:07:29.547Z,974.5
2017-08-20T06:08:29.544Z,974.52
2017-08-20T06:09:29.542Z,974.52
2017-08-20T06:10:29.541Z,974.53
2017-08-20T06:11:29.538Z,974.53
2017-08-20T06:12:29.536Z,974.48
2017-08-20T06:13:29.535Z,974.53
2017-08-20T06:14:29.533Z,974.47
2017-08-20T06:15:29.533Z,974.49
2017-08-20T06:16:29.530Z,974.51
2017-08-20T06:17:29.528Z,974.53
2017-08-20T06:18:29.527Z,974.48
2017-08-20T06:19:29.526Z,974.45
2017-08-20T06:20:29.524Z,974.49
2017-08-20T06:21:29.522Z,974.52
2017-08-20T06:22:29.520Z,974.54
2017-08-20T06:23:29.520Z,974.53
2017-08-20T06:24:29.516Z,974.53
2017-08-20T06:25:29.516Z,974.55
2017-08-20T06:26:29.514Z,974.58
2017-08-20T06:27:29.511Z,974.6
2017-08-20T06:28:29.510Z,974.59
2017-08-20T06:29:29.509Z,974.6
2017-08-20T06:30:29.507Z,974.57
2017-08-20T06:31:29.505Z,974.58
2017-08-20T06:32:29.504Z,974.59
2017-08-20T06:33:29.501Z,974.55
2017-08-20T06:34:29.500Z,974.57
2017-08-20T06:35:29.500Z,974.56
2017-08-20T06:36:29.497Z,974.58
2017-08-20T06:37:29.495Z,974.56
2017-08-20T06:38:29.494Z,974.58
2017-08-20T06:39:29.492Z,974.58
2017-08-20T06:40:29.490Z,974.61
2017-08-20T06:41:29.487Z,974.6
2017-08-20T06:42:29.485Z,974.62
2017-08-20T06:43:29.484Z,974.65
2017-08-20T06:44:29.483Z,974.62
2017-08-20T06:45:29.481Z,974.68
2017-08-20T06:46:29.480Z,974.7
2017-08-20T06:47:29.478Z,974.69
2017-08-20T06:48:29.476Z,974.7
2017-08-20T06:49:29.475Z,974.7
2017-08-20T06:50:29.474Z,974.68
2017-08-20T06:51:29.472Z,974.72
2017-08-20T06:52:29.470Z,974.75
2017-08-20T06:53:29.468Z,974.7
2017-08-20T06:54:29.466Z,974.71
2017-08-20T06:55:29.466Z,974.74
2017-08-20T06:56:29.464Z,974.75
2017-08-20T06:57:29.463Z,974.77
2017-08-20T06:58:29.461Z,974.81
2017-08-20T06:59:29.462Z,974.76
2017-08-20T07:00:29.458Z,974.79
2017-08-20T07:01:29.456Z,974.79
2017-08-20T07:02:29.454Z,974.8
2017-08-20T07:03:29.451Z,974.78
2017-08-20T07:04:29.452Z,974.77
2017-08-20T07:05:29.448Z,974.78
2017-08-20T07:06:29.449Z,974.78
2017-08-20T07:07:29.445Z,974.77
2017-08-20T07:08:29.444Z,974.74
2017-08-20T07:09:29.443Z,974.77
2017-08-20T07:10:29.442Z,974.71
2017-08-20T07:11:29.442Z,974.76
2017-08-20T07:12:29.440Z,974.75
2017-08-20T07:13:29.437Z,974.75
2017-08-20T07:14:29.435Z,974.77
2017-08-20T07:15:29.433Z,974.73
2017-08-20T07:16:29.433Z,974.78
2017-08-20T07:17:29.433Z,974.77
2017-08-20T07:18:29.430Z,974.77
2017-08-20T07:19:29.429Z,974.77
2017-08-20T07:20:29.429Z,974.79
2017-08-20T07:21:29.426Z,974.8
2017-08-20T07:22:29.424Z,974.75
2017-08-20T07:23:29.425Z,974.79
2017-08-20T07:24:29.423Z,974.82
2017-08-20T07:25:29.422Z,974.81
2017-08-20T07:26:29.420Z,974.83
2017-08-20T07:27:29.420Z,974.85
2017-08-20T07:28:29.418Z,974.87
2017-08-20T07:29:29.420Z,974.84
2017-08-20T07:30:29.416Z,974.84
2017-08-20T07:31:29.415Z,974.89
2017-08-20T07:32:29.412Z,974.86
2017-08-20T07:33:29.411Z,974.89
2017-08-20T07:34:29.412Z,974.93
2017-08-20T07:35:29.410Z,974.92
2017-08-20T07:36:29.407Z,974.91
2017-08-20T07:37:29.408Z,974.97
2017-08-20T07:38:29.406Z,974.93
2017-08-20T07:39:29.406Z,974.93
2017-08-20T07:40:29.404Z,974.92
2017-08-20T07:41:29.402Z,974.91
2017-08-20T07:42:29.401Z,974.9
2017-08-20T07:43:29.399Z,974.92
2017-08-20T07:44:29.396Z,974.91
2017-08-20T07:45:29.397Z,974.89
2017-08-20T07:46:29.395Z,974.92
2017-08-20T07:47:29.393Z,974.89
2017-08-20T07:48:29.394Z,974.9
2017-08-20T07:49:29.392Z,974.89
2017-08-20T07:50:29.391Z,974.89
2017-08-20T07:51:29.388Z,974.83
2017-08-20T07:52:29.387Z,974.84
2017-08-20T07:53:29.385Z,974.85
2017-08-20T07:54:29.383Z,974.87
2017-08-20T07:55:29.382Z,974.86
2017-08-20T07:56:29.380Z,974.87
2017-08-20T07:57:29.381Z,974.91
2017-08-20T07:58:29.378Z,974.89
2017-08-20T07:59:29.376Z,974.88
2017-08-20T08:00:29.374Z,974.87
2017-08-20T08:01:29.374Z,974.89
2017-08-20T08:02:29.370Z,974.88
2017-08-20T08:03:29.369Z,974.92
2017-08-20T08:04:29.368Z,974.94
2017-08-20T08:05:29.367Z,974.92
2017-08-20T08:06:29.363Z,974.91
2017-08-20T08:07:29.364Z,974.92
2017-08-20T08:08:29.363Z,974.93
2017-08-20T08:09:29.359Z,974.89
2017-08-20T08:10:29.357Z,974.9
2017-08-20T08:11:29.357Z,974.88
2017-08-20T08:12:29.355Z,974.89
2017-08-20T08:13:29.351Z,974.88
2017-08-20T08:14:29.351Z,974.86
2017-08-20T08:15:29.348Z,974.88
2017-08-20T08:16:29.348Z,974.89
2017-08-20T08:17:29.345Z,974.89
2017-08-20T08:18:29.343Z,974.9
2017-08-20T08:19:29.341Z,974.88
2017-08-20T08:20:29.339Z,974.91
2017-08-20T08:21:29.337Z,974.92
2017-08-20T08:22:29.334Z,974.91
2017-08-20T08:23:29.334Z,974.91
2017-08-20T08:24:29.332Z,974.91
2017-08-20T08:25:29.330Z,974.92
2017-08-20T08:26:29.330Z,974.92
2017-08-20T08:27:29.326Z,974.94
2017-08-20T08:28:29.324Z,974.92
2017-08-20T08:29:29.323Z,974.94
2017-08-20T08:30:29.322Z,974.94
2017-08-20T08:31:29.317Z,974.97
2017-08-20T08:32:29.316Z,975.01
2017-08-20T08:33:29.315Z,975.01
2017-08-20T08:34:29.312Z,975.02
2017-08-20T08:35:29.311Z,974.98
2017-08-20T08:36:29.308Z,974.98
2017-08-20T08:37:29.307Z,975.02
2017-08-20T08:38:29.304Z,975.05
2017-08-20T08:39:29.303Z,975.03
2017-08-20T08:40:29.302Z,975.02
2017-08-20T08:41:29.299Z,975.01
2017-08-20T08:42:29.297Z,975.03
2017-08-20T08:43:29.294Z,975.02
2017-08-20T08:44:29.293Z,975.04
2017-08-20T08:45:29.290Z,975.06
2017-08-20T08:46:29.288Z,975.04
2017-08-20T08:47:29.287Z,975.06
2017-08-20T08:48:29.283Z,975.07
2017-08-20T08:49:29.281Z,975.07
2017-08-20T08:50:29.279Z,975.03
2017-08-20T08:51:29.286Z,975.03
2017-08-20T08:52:29.275Z,975.05
2017-08-20T08:53:29.277Z,975.04
2017-08-20T08:54:29.272Z,975.03
2017-08-20T08:55:29.270Z,975.05
2017-08-20T08:56:29.266Z,975.04
2017-08-20T08:57:29.264Z,975.07
2017-08-20T08:58:29.262Z,975.06
2017-08-20T08:59:29.260Z,975.05
2017-08-20T09:00:29.258Z,975.11
2017-08-20T09:01:29.256Z,975.08
2017-08-20T09:02:29.254Z,975.12
2017-08-20T09:03:29.251Z,975.11
2017-08-20T09:04:29.249Z,975.11
2017-08-20T09:05:29.247Z,975.14
2017-08-20T09:06:29.245Z,975.16
2017-08-20T09:07:29.241Z,975.14
2017-08-20T09:08:29.239Z,975.16
2017-08-20T09:09:29.238Z,975.17
2017-08-20T09:10:29.235Z,975.15
2017-08-20T09:11:29.232Z,975.17
2017-08-20T09:12:29.230Z,975.15
2017-08-20T09:13:29.228Z,975.14
2017-08-20T09:14:29.226Z,975.12
2017-08-20T09:15:29.223Z,975.12
2017-08-20T09:16:29.222Z,975.14
2017-08-20T09:17:29.225Z,975.11
2017-08-20T09:18:29.216Z,975.14
2017-08-20T09:19:29.216Z,975.13
2017-08-20T09:20:29.212Z,975.15
2017-08-20T09:21:29.210Z,975.16
2017-08-20T09:22:29.206Z,975.14
2017-08-20T09:23:29.207Z,975.13
2017-08-20T09:24:29.205Z,975.15
2017-08-20T09:25:29.202Z,975.14
2017-08-20T09:26:29.199Z,975.14
2017-08-20T09:27:29.198Z,975.15
2017-08-20T09:28:29.195Z,975.13
2017-08-20T09:29:29.193Z,975.16
2017-08-20T09:30:29.190Z,975.17
2017-08-20T09:31:29.189Z,975.12
2017-08-20T09:32:29.186Z,975.16
2017-08-20T09:33:29.186Z,975.14
2017-08-20T09:34:29.181Z,975.18
2017-08-20T09:35:29.178Z,975.15
2017-08-20T09:36:29.178Z,975.18
2017-08-20T09:37:29.175Z,975.19
2017-08-20T09:38:29.174Z,975.22
2017-08-20T09:39:29.171Z,975.19
2017-08-20T09:40:29.168Z,975.19
2017-08-20T09:41:29.167Z,975.18
2017-08-20T09:42:29.166Z,975.19
2017-08-20T09:43:29.164Z,975.16
2017-08-20T09:44:29.160Z,975.16
2017-08-20T09:45:29.159Z,975.16
2017-08-20T09:46:29.157Z,975.2
2017-08-20T09:47:29.156Z,975.16
2017-08-20T09:48:29.152Z,975.18
2017-08-20T09:49:29.150Z,975.12
2017-08-20T09:50:29.150Z,975.14
2017-08-20T09:51:29.147Z,975.17
2017-08-20T09:52:29.144Z,975.13
2017-08-20T09:53:29.143Z,975.15
2017-08-20T09:54:29.141Z,975.15
2017-08-20T09:55:29.139Z,975.16
2017-08-20T09:56:29.135Z,975.12
2017-08-20T09:57:29.134Z,975.12
2017-08-20T09:58:29.133Z,975.12
2017-08-20T09:59:29.130Z,975.12
2017-08-20T10:00:29.132Z,975.12
2017-08-20T10:01:29.126Z,975.09
2017-08-20T10:02:29.125Z,975.09
2017-08-20T10:03:29.122Z,975.08
2017-08-20T10:04:29.121Z,975.04
2017-08-20T10:05:29.118Z,975.05
2017-08-20T10:06:29.117Z,975.06
2017-08-20T10:07:29.114Z,975.02
2017-08-20T10:08:29.113Z,974.97
2017-08-20T10:09:29.110Z,975.06
2017-08-20T10:10:29.110Z,975
2017-08-20T10:11:29.108Z,975.02
2017-08-20T10:12:29.106Z,975.04
2017-08-20T10:13:29.102Z,974.99
2017-08-20T10:14:29.101Z,975
2017-08-20T10:15:29.099Z,975.02
2017-08-20T10:16:29.097Z,975
2017-08-20T10:17:29.094Z,974.96
2017-08-20T10:18:29.093Z,975.01
2017-08-20T10:19:29.091Z,974.92
2017-08-20T10:20:29.089Z,974.92
2017-08-20T10:21:29.087Z,974.92
2017-08-20T10:22:29.085Z,974.88
2017-08-20T10:23:29.084Z,974.87
2017-08-20T10:24:29.079Z,974.83
2017-08-20T10:25:29.079Z,974.85
2017-08-20T10:26:29.077Z,974.83
2017-08-20T10:27:29.074Z,974.85
2017-08-20T10:28:29.071Z,974.84
2017-08-20T10:29:29.071Z,974.9
2017-08-20T10:30:29.069Z,974.89
2017-08-20T10:31:29.066Z,974.83
2017-08-20T10:32:29.066Z,974.89
2017-08-20T10:33:29.062Z,974.93
2017-08-20T10:34:29.061Z,974.92
2017-08-20T10:35:29.057Z,974.92
2017-08-20T10:36:29.056Z,974.9
2017-08-20T10:37:29.054Z,974.87
2017-08-20T10:38:29.055Z,974.87
2017-08-20T10:39:29.050Z,974.89
2017-08-20T10:40:29.048Z,974.88
2017-08-20T10:41:29.046Z,974.87
2017-08-20T10:42:29.044Z,974.91
2017-08-20T10:43:29.042Z,974.87
2017-08-20T10:44:29.040Z,974.88
2017-08-20T10:45:29.037Z,974.91
2017-08-20T10:46:29.036Z,974.89
2017-08-20T10:47:29.034Z,974.85
2017-08-20T10:48:29.032Z,974.9
2017-08-20T10:49:29.029Z,974.81
2017-08-20T10:50:29.026Z,974.82
2017-08-20T10:51:29.025Z,974.79
2017-08-20T10:52:29.022Z,974.74
2017-08-20T10:53:29.019Z,974.81
2017-08-20T10:54:29.019Z,974.84
2017-08-20T10:55:29.016Z,974.82
2017-08-20T10:56:29.015Z,974.84
2017-08-20T10:57:29.020Z,974.76
2017-08-20T10:58:29.008Z,974.73
2017-08-20T10:59:29.006Z,974.71
2017-08-20T11:00:29.006Z,974.69
2017-08-20T11:01:29.003Z,974.65
2017-08-20T11:02:29.000Z,974.65
2017-08-20T11:03:29.003Z,974.63
2017-08-20T11:04:28.996Z,974.63
2017-08-20T11:05:28.996Z,974.68
2017-08-20T11:06:28.993Z,974.66
2017-08-20T11:07:28.991Z,974.65
2017-08-20T11:08:28.988Z,974.68
2017-08-20T11:09:28.986Z,974.68
2017-08-20T11:10:28.984Z,974.66
2017-08-20T11:11:28.982Z,974.65
2017-08-20T11:12:28.980Z,974.67
2017-08-20T11:13:28.978Z,974.65
2017-08-20T11:14:28.979Z,974.65
2017-08-20T11:15:28.974Z,974.61
2017-08-20T11:16:28.972Z,974.59
2017-08-20T11:17:28.970Z,974.62
2017-08-20T11:18:28.993Z,974.63
2017-08-20T11:19:28.966Z,974.61
2017-08-20T11:20:28.962Z,974.61
2017-08-20T11:21:28.960Z,974.57
2017-08-20T11:22:28.960Z,974.62
2017-08-20T11:23:28.956Z,974.6
2017-08-20T11:24:28.955Z,974.71
2017-08-20T11:25:28.953Z,974.62
2017-08-20T11:26:28.949Z,974.68
2017-08-20T11:27:28.948Z,974.62
2017-08-20T11:28:28.947Z,974.64
2017-08-20T11:29:28.946Z,974.66
2017-08-20T11:30:28.941Z,974.61
2017-08-20T11:31:28.939Z,974.57
2017-08-20T11:32:28.938Z,974.63
2017-08-20T11:33:28.937Z,974.65
2017-08-20T11:34:28.934Z,974.62
2017-08-20T11:35:28.933Z,974.63
2017-08-20T11:36:28.931Z,974.64
2017-08-20T11:37:28.929Z,974.68
2017-08-20T11:38:28.926Z,974.63
2017-08-20T11:39:28.924Z,974.67
2017-08-20T11:40:28.925Z,974.59
2017-08-20T11:41:28.918Z,974.55
2017-08-20T11:42:28.916Z,974.59
2017-08-20T11:43:28.915Z,974.66
2017-08-20T11:44:28.912Z,974.6
2017-08-20T11:45:28.916Z,974.59
2017-08-20T11:46:28.909Z,974.67
2017-08-20T11:47:28.907Z,974.62
2017-08-20T11:48:28.905Z,974.62
2017-08-20T11:49:28.900Z,974.66
2017-08-20T11:50:28.899Z,974.59
2017-08-20T11:51:28.900Z,974.61
2017-08-20T11:52:28.896Z,974.62
2017-08-20T11:53:28.899Z,974.51
2017-08-20T11:54:28.892Z,974.54
2017-08-20T11:55:28.889Z,974.54
2017-08-20T11:56:28.886Z,974.55
2017-08-20T11:57:28.886Z,974.5
2017-08-20T11:58:28.883Z,974.51
2017-08-20T11:59:28.881Z,974.53
2017-08-20T12:00:28.902Z,974.47
2017-08-20T12:01:28.904Z,974.51
2017-08-20T12:02:28.874Z,974.44
2017-08-20T12:03:28.872Z,974.45
2017-08-20T12:04:28.869Z,974.42
2017-08-20T12:05:28.867Z,974.44
2017-08-20T12:06:28.864Z,974.53
2017-08-20T12:07:28.863Z,974.47
2017-08-20T12:08:28.860Z,974.5
2017-08-20T12:09:28.860Z,974.48
2017-08-20T12:10:28.856Z,974.5
2017-08-20T12:11:28.853Z,974.55
2017-08-20T12:12:28.851Z,974.51
2017-08-20T12:13:28.850Z,974.45
2017-08-20T12:14:28.846Z,974.48
2017-08-20T12:15:28.845Z,974.45
2017-08-20T12:16:28.842Z,974.44
2017-08-20T12:17:28.839Z,974.45
2017-08-20T12:18:28.838Z,974.43
2017-08-20T12:19:28.836Z,974.39
2017-08-20T12:20:28.834Z,974.42
2017-08-20T12:21:28.831Z,974.45
2017-08-20T12:22:28.829Z,974.45
2017-08-20T12:23:28.828Z,974.45
2017-08-20T12:24:28.826Z,974.42
2017-08-20T12:25:28.822Z,974.42
2017-08-20T12:26:28.820Z,974.42
2017-08-20T12:27:28.819Z,974.42
2017-08-20T12:28:28.815Z,974.39
2017-08-20T12:29:28.813Z,974.44
2017-08-20T12:30:28.811Z,974.4